Time;durP1;ratioP1;P1;durP2;ratioP2;P2;SDS_P1;SDS_P2;PMS_P1;PMS_P2;Temp;Humidity;BMP_temperature;BMP_pressure;BME280_temperature;BME280_humidity;BME280_pressure;Samples;Min_cycle;Max_cycle;Signal;HPM_P1;HPM_P2
2022/01/20 00:03:32;;;;;;;26.10;13.98;;;-4.20;99.90;;;;;;5129295;28;20170;-77
2022/01/20 00:27:22;;;;;;;23.58;12.32;;;-4.20;99.90;;;;;;5124983;28;20204;-76
2022/01/20 00:33:31;;;;;;;31.95;13.65;;;-4.40;99.90;;;;;;5115886;28;20190;-76
2022/01/20 00:35:25;;;;;;;24.48;13.13;;;-4.40;99.90;;;;;;5111649;28;20213;-75
2022/01/20 00:37:51;;;;;;;25.65;15.68;;;-4.40;99.90;;;;;;5128147;28;20167;-76
2022/01/20 00:40:17;;;;;;;23.08;12.38;;;-4.40;99.90;;;;;;5125815;28;20199;-77
2022/01/20 00:42:43;;;;;;;33.30;14.40;;;-4.40;99.90;;;;;;5127831;28;20203;-75
2022/01/20 00:45:10;;;;;;;31.30;14.15;;;-4.40;99.90;;;;;;5109441;28;20223;-75
2022/01/20 00:47:37;;;;;;;36.30;16.15;;;-4.50;99.90;;;;;;5127999;28;20203;-75
2022/01/20 00:50:09;;;;;;;20.02;12.88;;;-4.40;99.90;;;;;;5110366;28;20170;-75
2022/01/20 00:52:35;;;;;;;50.72;14.80;;;-4.50;99.90;;;;;;5126749;28;20191;-75
2022/01/20 00:55:01;;;;;;;25.17;14.05;;;-4.50;99.90;;;;;;5128508;28;20186;-75
2022/01/20 00:57:27;;;;;;;27.55;13.85;;;-4.50;99.90;;;;;;5127908;28;20158;-75
2022/01/20 00:59:53;;;;;;;28.25;13.07;;;-4.40;99.90;;;;;;5127278;28;20218;-75
2022/01/20 01:02:21;;;;;;;18.15;12.68;;;-4.40;99.90;;;;;;5128482;28;20181;-75
2022/01/20 01:04:47;;;;;;;19.42;10.77;;;-4.50;99.90;;;;;;5110141;28;20169;-75
2022/01/20 01:09:40;;;;;;;31.95;17.10;;;-4.50;99.90;;;;;;5127715;28;20184;-75
2022/01/20 01:12:13;;;;;;;29.42;16.05;;;-4.50;99.90;;;;;;5126516;28;20199;-75
2022/01/20 01:14:46;;;;;;;25.02;15.38;;;-4.50;99.90;;;;;;5110089;28;20802;-76
2022/01/20 01:22:35;;;;;;;24.98;13.57;;;-4.40;99.90;;;;;;5114730;28;20175;-75
2022/01/20 01:25:02;;;;;;;30.17;12.38;;;-4.40;99.90;;;;;;5128357;28;20231;-76
2022/01/20 01:27:33;;;;;;;31.20;12.27;;;-4.40;99.90;;;;;;5125729;28;20194;-76
2022/01/20 01:35:07;;;;;;;19.95;11.82;;;-4.40;99.90;;;;;;5128362;28;20190;-75
2022/01/20 01:40:00;;;;;;;23.90;12.75;;;-4.00;99.90;;;;;;5127649;28;20166;-75
2022/01/20 01:42:44;;;;;;;18.83;11.85;;;-3.90;99.90;;;;;;5109823;28;20173;-75
2022/01/20 01:45:16;;;;;;;25.50;14.23;;;-3.90;99.90;;;;;;5109720;28;20181;-75
2022/01/20 01:47:44;;;;;;;22.17;12.15;;;-3.90;99.90;;;;;;5111596;28;20237;-75
2022/01/20 01:50:10;;;;;;;21.38;11.15;;;-3.90;99.90;;;;;;5112625;28;20620;-76
2022/01/20 01:52:38;;;;;;;29.15;13.48;;;-3.90;99.90;;;;;;5129856;28;20198;-75
2022/01/20 01:55:04;;;;;;;25.20;12.00;;;-4.00;99.90;;;;;;5131512;28;20201;-75
2022/01/20 01:57:33;;;;;;;27.33;13.32;;;-4.00;99.90;;;;;;5131696;28;20177;-77
2022/01/20 01:59:59;;;;;;;33.35;14.82;;;-4.00;99.90;;;;;;5112670;28;20234;-76
2022/01/20 02:02:25;;;;;;;16.25;10.40;;;-4.00;99.90;;;;;;5130888;28;20706;-77
2022/01/20 02:04:53;;;;;;;36.80;13.35;;;-4.00;99.90;;;;;;5113152;28;20174;-76
2022/01/20 02:18:36;;;;;;;19.52;12.30;;;-3.60;99.90;;;;;;5130138;28;20530;-76
2022/01/20 02:21:05;;;;;;;24.13;13.23;;;-3.60;99.90;;;;;;5129474;28;20193;-76
2022/01/20 02:23:32;;;;;;;25.63;13.05;;;-3.50;99.90;;;;;;5112472;28;20179;-77
2022/01/20 02:25:58;;;;;;;20.95;11.75;;;-3.50;99.90;;;;;;5108431;28;20318;-77
2022/01/20 02:28:24;;;;;;;18.90;11.40;;;-3.50;99.90;;;;;;5112359;28;20167;-77
2022/01/20 02:30:50;;;;;;;22.30;10.55;;;-3.50;99.90;;;;;;5112432;28;20171;-75
2022/01/20 02:33:26;;;;;;;21.10;9.80;;;-3.40;99.90;;;;;;5110832;28;20262;-77
2022/01/20 02:36:01;;;;;;;19.45;10.48;;;-3.50;99.90;;;;;;5110239;28;20197;-77
2022/01/20 02:46:25;;;;;;;28.00;9.63;;;-3.30;99.90;;;;;;5128591;28;20201;-77
2022/01/20 02:48:51;;;;;;;22.35;10.85;;;-3.40;99.90;;;;;;5130519;28;20584;-77
2022/01/20 02:51:17;;;;;;;18.08;9.77;;;-3.50;99.90;;;;;;5129216;28;20198;-77
2022/01/20 02:53:46;;;;;;;36.88;16.92;;;-3.70;99.90;;;;;;5111217;28;20226;-76
2022/01/20 02:56:11;;;;;;;27.77;14.07;;;-3.90;99.90;;;;;;5112131;28;20174;-77
2022/01/20 02:58:37;;;;;;;29.05;12.80;;;-4.00;99.90;;;;;;5129557;28;20187;-77
2022/01/20 03:01:03;;;;;;;23.85;12.23;;;-4.00;99.90;;;;;;5111433;28;20222;-76
2022/01/20 03:03:29;;;;;;;25.85;11.35;;;-4.00;99.90;;;;;;5111355;28;20171;-76
2022/01/20 03:05:58;;;;;;;21.20;11.52;;;-4.00;99.90;;;;;;5111688;28;20230;-76
2022/01/20 03:08:24;;;;;;;22.13;11.75;;;-4.00;99.90;;;;;;5111625;28;20163;-76
2022/01/20 03:10:51;;;;;;;28.80;13.10;;;-3.80;99.90;;;;;;5129592;28;20194;-77
2022/01/20 03:13:18;;;;;;;18.95;11.57;;;-3.80;99.90;;;;;;5129981;28;20613;-76
2022/01/20 03:15:45;;;;;;;27.83;14.40;;;-3.80;99.90;;;;;;5110884;28;20181;-77
2022/01/20 03:18:11;;;;;;;20.23;11.15;;;-3.80;99.90;;;;;;5129921;28;20155;-77
2022/01/20 03:20:41;;;;;;;22.33;12.07;;;-3.80;99.90;;;;;;5128052;28;20194;-75
2022/01/20 03:23:07;;;;;;;21.25;10.93;;;-3.90;99.90;;;;;;5129570;28;20260;-78
2022/01/20 03:25:32;;;;;;;25.17;11.15;;;-3.90;99.90;;;;;;5111076;28;20175;-76
2022/01/20 03:27:59;;;;;;;19.30;11.95;;;-4.00;99.90;;;;;;5129868;28;20203;-76
2022/01/20 03:30:26;;;;;;;31.00;9.40;;;-4.00;99.90;;;;;;5129231;28;20190;-77
2022/01/20 03:32:52;;;;;;;15.85;9.52;;;-3.90;99.90;;;;;;5129718;28;20167;-77
2022/01/20 03:35:18;;;;;;;21.08;9.15;;;-3.80;99.90;;;;;;5120980;28;20210;-75
2022/01/20 03:37:44;;;;;;;21.35;9.02;;;-3.70;99.90;;;;;;5129903;28;20159;-76
2022/01/20 03:40:10;;;;;;;16.45;11.35;;;-3.70;99.90;;;;;;5128070;28;20186;-75
2022/01/20 03:42:37;;;;;;;13.95;9.30;;;-3.80;99.90;;;;;;5124022;28;20212;-76
2022/01/20 03:45:04;;;;;;;16.23;9.63;;;-3.80;99.90;;;;;;5128988;28;20169;-76
2022/01/20 03:47:30;;;;;;;20.23;10.52;;;-3.80;99.90;;;;;;5126828;28;20226;-77
2022/01/20 03:52:28;;;;;;;20.83;11.77;;;-4.00;99.90;;;;;;5129283;28;20226;-76
2022/01/20 03:54:54;;;;;;;26.30;11.63;;;-4.00;99.90;;;;;;5127854;28;20210;-77
2022/01/20 03:57:20;;;;;;;22.63;11.38;;;-4.00;99.90;;;;;;5127098;28;20232;-76
2022/01/20 03:59:51;;;;;;;14.43;10.25;;;-4.00;99.90;;;;;;5110274;28;20214;-76
2022/01/20 04:02:17;;;;;;;22.13;10.50;;;-4.10;99.90;;;;;;5109765;28;20197;-78
2022/01/20 04:04:43;;;;;;;17.23;9.52;;;-4.10;99.90;;;;;;5126474;28;20203;-77
2022/01/20 04:07:09;;;;;;;16.65;9.25;;;-4.20;99.90;;;;;;5110086;28;20186;-78
2022/01/20 04:09:40;;;;;;;21.45;9.82;;;-4.10;99.90;;;;;;5127783;28;20166;-76
2022/01/20 04:12:07;;;;;;;18.95;8.88;;;-4.10;99.90;;;;;;5128921;28;20163;-77
2022/01/20 04:14:34;;;;;;;25.92;10.15;;;-4.20;99.90;;;;;;5110554;28;20194;-77
2022/01/20 04:17:03;;;;;;;24.25;11.45;;;-4.30;99.90;;;;;;5109922;28;20171;-75
2022/01/20 04:19:32;;;;;;;20.42;10.98;;;-4.30;99.90;;;;;;5108542;28;20206;-78
2022/01/20 04:22:00;;;;;;;22.35;10.23;;;-4.30;99.90;;;;;;5110505;28;20177;-77
2022/01/20 04:24:27;;;;;;;15.88;9.52;;;-4.30;99.90;;;;;;5111925;28;20165;-77
2022/01/20 04:26:53;;;;;;;16.20;9.55;;;-4.30;99.90;;;;;;5128686;28;20185;-78
2022/01/20 04:29:19;;;;;;;17.05;9.88;;;-4.40;99.90;;;;;;5109966;28;20190;-77
2022/01/20 04:31:49;;;;;;;26.98;11.25;;;-4.50;99.90;;;;;;5110356;28;20166;-77
2022/01/20 04:34:15;;;;;;;21.58;10.55;;;-4.50;99.90;;;;;;5128573;28;20194;-77
2022/01/20 04:36:44;;;;;;;17.90;9.30;;;-4.50;99.90;;;;;;5128730;28;20158;-76
2022/01/20 04:39:20;;;;;;;20.50;10.93;;;-4.50;99.90;;;;;;5109731;28;20545;-75
2022/01/20 04:41:50;;;;;;;16.15;8.90;;;-4.60;99.90;;;;;;5128246;28;20168;-78
2022/01/20 04:44:34;;;;;;;18.50;11.65;;;-4.50;99.90;;;;;;5128285;28;20610;-76
2022/01/20 04:47:13;;;;;;;22.73;10.73;;;-4.40;99.90;;;;;;5128480;28;20171;-77
2022/01/20 04:57:52;;;;;;;16.42;9.50;;;-4.60;99.90;;;;;;5128406;28;20165;-76
2022/01/20 05:00:18;;;;;;;19.30;9.75;;;-4.60;99.90;;;;;;5127281;28;20214;-78
2022/01/20 05:02:44;;;;;;;22.52;11.75;;;-4.50;99.90;;;;;;5128426;28;20159;-78
2022/01/20 05:05:10;;;;;;;23.60;12.20;;;-4.40;99.90;;;;;;5128417;28;20171;-79
2022/01/20 05:07:36;;;;;;;18.48;11.13;;;-4.30;99.90;;;;;;5128372;28;20182;-78
2022/01/20 05:10:06;;;;;;;21.40;10.63;;;-4.30;99.90;;;;;;5127350;28;20198;-77
2022/01/20 05:15:20;;;;;;;19.60;9.57;;;-4.50;99.90;;;;;;5059766;28;20234;-77
2022/01/20 05:17:46;;;;;;;21.50;12.63;;;-4.50;99.90;;;;;;5123312;28;20203;-77
2022/01/20 05:20:12;;;;;;;30.90;12.52;;;-4.60;99.90;;;;;;5127679;28;20191;-78
2022/01/20 05:22:38;;;;;;;18.58;12.07;;;-4.40;99.90;;;;;;5112611;28;20243;-77
2022/01/20 05:25:05;;;;;;;22.77;11.73;;;-4.50;99.90;;;;;;5132600;28;20154;-77
2022/01/20 05:27:32;;;;;;;24.60;13.55;;;-4.50;99.90;;;;;;5108275;28;20197;-77
2022/01/20 05:29:58;;;;;;;21.92;11.70;;;-4.50;99.90;;;;;;5126452;28;20201;-77
2022/01/20 05:32:24;;;;;;;18.90;11.20;;;-4.60;99.90;;;;;;5113208;28;20170;-77
2022/01/20 05:34:53;;;;;;;18.77;11.63;;;-4.60;99.90;;;;;;5114798;28;20191;-78
2022/01/20 05:37:19;;;;;;;19.20;11.55;;;-4.60;99.90;;;;;;5131816;28;20222;-77
2022/01/20 05:39:45;;;;;;;25.23;11.88;;;-4.50;99.90;;;;;;5131337;28;20187;-76
2022/01/20 05:42:11;;;;;;;23.42;11.38;;;-4.50;99.90;;;;;;5131183;28;20167;-76
2022/01/20 05:44:39;;;;;;;23.90;11.73;;;-4.50;99.90;;;;;;5112913;28;20185;-78
2022/01/20 05:47:12;;;;;;;34.70;17.15;;;-4.40;99.90;;;;;;5131587;28;20177;-77
2022/01/20 05:49:38;;;;;;;23.75;12.60;;;-4.40;99.90;;;;;;5131240;28;20174;-77
2022/01/20 05:52:04;;;;;;;27.67;12.57;;;-4.40;99.90;;;;;;5128798;28;20194;-77
2022/01/20 05:54:30;;;;;;;32.47;12.70;;;-4.50;99.90;;;;;;5129312;28;20261;-77
2022/01/20 05:56:57;;;;;;;34.30;14.93;;;-4.40;99.90;;;;;;5131272;28;20501;-77
2022/01/20 05:59:23;;;;;;;32.42;12.93;;;-4.40;99.90;;;;;;5131116;28;20732;-77
2022/01/20 06:01:56;;;;;;;23.17;12.48;;;-4.40;99.90;;;;;;5112168;28;20174;-77
2022/01/20 06:04:22;;;;;;;22.85;13.68;;;-4.40;99.90;;;;;;5112643;28;20338;-77
2022/01/20 06:06:48;;;;;;;22.85;11.88;;;-4.10;99.90;;;;;;5131029;28;20242;-77
2022/01/20 06:09:14;;;;;;;30.27;13.40;;;-3.90;99.90;;;;;;5130987;28;20158;-77
2022/01/20 06:11:40;;;;;;;23.17;10.73;;;-3.90;99.90;;;;;;5111198;28;20225;-78
2022/01/20 06:14:06;;;;;;;22.17;11.45;;;-3.90;99.90;;;;;;5130501;28;20222;-77
2022/01/20 06:16:32;;;;;;;24.30;13.35;;;-4.00;99.90;;;;;;5130782;28;20651;-76
2022/01/20 06:18:58;;;;;;;21.48;11.02;;;-4.00;99.90;;;;;;5130917;28;20158;-77
2022/01/20 06:21:24;;;;;;;22.30;12.20;;;-4.00;99.90;;;;;;5112270;28;20225;-78
2022/01/20 06:23:51;;;;;;;31.42;14.57;;;-4.00;99.90;;;;;;5129159;28;20218;-78
2022/01/20 06:26:19;;;;;;;34.58;12.88;;;-3.90;99.90;;;;;;5130644;28;20197;-76
2022/01/20 06:28:45;;;;;;;22.50;13.68;;;-3.90;99.90;;;;;;5130494;28;20250;-77
2022/01/20 06:31:11;;;;;;;19.23;12.30;;;-3.90;99.90;;;;;;5110919;28;20198;-78
2022/01/20 06:33:37;;;;;;;21.83;12.15;;;-3.90;99.90;;;;;;5128789;28;20193;-77
2022/01/20 06:36:03;;;;;;;30.85;12.98;;;-3.80;99.90;;;;;;5130505;28;20166;-79
2022/01/20 06:38:29;;;;;;;20.17;11.65;;;-3.80;99.90;;;;;;5130346;28;20173;-77
2022/01/20 06:40:55;;;;;;;22.35;12.07;;;-3.70;99.90;;;;;;5129154;28;20191;-77
2022/01/20 06:43:21;;;;;;;23.67;13.93;;;-3.50;99.90;;;;;;5130029;28;20252;-76
2022/01/20 06:45:47;;;;;;;18.67;11.70;;;-3.50;99.90;;;;;;5127993;28;20187;-77
2022/01/20 06:48:13;;;;;;;21.45;11.13;;;-3.50;99.90;;;;;;5111910;28;20243;-77
2022/01/20 06:50:39;;;;;;;27.25;10.60;;;-3.50;99.90;;;;;;5110848;28;20168;-79
2022/01/20 06:53:07;;;;;;;19.88;9.50;;;-3.40;99.90;;;;;;5126681;28;20198;-78
2022/01/20 06:55:35;;;;;;;19.00;11.75;;;-3.40;99.90;;;;;;5129396;28;20363;-77
2022/01/20 06:58:01;;;;;;;20.70;12.40;;;-3.30;99.90;;;;;;5130586;28;20181;-76
2022/01/20 07:00:27;;;;;;;22.63;12.43;;;-3.20;99.90;;;;;;5111411;28;20270;-76
2022/01/20 07:02:54;;;;;;;20.30;10.70;;;-3.20;99.90;;;;;;5110215;28;20224;-76
2022/01/20 07:05:22;;;;;;;20.30;9.65;;;-3.10;99.90;;;;;;5129925;28;20190;-80
2022/01/20 07:07:49;;;;;;;23.38;10.70;;;-3.00;99.90;;;;;;5130243;28;20174;-80
2022/01/20 07:10:19;;;;;;;19.73;10.43;;;-3.00;99.90;;;;;;5128547;27;20234;-77
2022/01/20 07:12:46;;;;;;;15.80;8.27;;;-2.80;99.90;;;;;;5128840;28;20202;-77
2022/01/20 07:15:16;;;;;;;15.77;9.95;;;-2.80;99.90;;;;;;5129043;28;20212;-77
2022/01/20 07:17:45;;;;;;;19.35;11.05;;;-2.70;99.90;;;;;;5129794;28;20170;-78
2022/01/20 07:20:13;;;;;;;16.20;8.77;;;-2.60;99.90;;;;;;5109768;28;20224;-77
2022/01/20 07:22:39;;;;;;;16.67;7.95;;;-2.60;99.90;;;;;;5107267;28;20233;-77
2022/01/20 07:25:05;;;;;;;17.73;8.65;;;-2.60;99.90;;;;;;5127121;28;20195;-79
2022/01/20 07:27:31;;;;;;;16.98;9.07;;;-2.50;99.90;;;;;;5128450;28;20277;-77
2022/01/20 07:29:57;;;;;;;18.02;9.55;;;-2.40;99.90;;;;;;5111012;28;20182;-77
2022/01/20 07:32:23;;;;;;;17.20;9.13;;;-2.30;99.90;;;;;;5110389;28;20343;-77
2022/01/20 07:34:49;;;;;;;15.63;8.80;;;-2.20;99.90;;;;;;5110868;28;20198;-78
2022/01/20 07:37:18;;;;;;;16.33;8.55;;;-2.20;99.90;;;;;;5110356;28;20187;-79
2022/01/20 07:39:44;;;;;;;18.50;10.10;;;-2.10;99.90;;;;;;5111081;28;20171;-79
2022/01/20 07:42:10;;;;;;;12.82;9.05;;;-2.10;99.90;;;;;;5128625;28;20197;-80
2022/01/20 07:44:36;;;;;;;19.02;9.95;;;-2.00;99.90;;;;;;5128684;28;20159;-76
2022/01/20 07:47:02;;;;;;;18.08;8.93;;;-1.90;99.90;;;;;;5111666;28;20170;-76
2022/01/20 07:49:28;;;;;;;18.23;9.25;;;-1.90;99.90;;;;;;5111718;28;20228;-76
2022/01/20 07:51:54;;;;;;;17.60;9.95;;;-1.70;99.90;;;;;;5129915;28;20194;-76
2022/01/20 07:54:22;;;;;;;17.48;8.88;;;-1.60;99.90;;;;;;5130078;28;20186;-75
2022/01/20 07:56:51;;;;;;;15.05;8.52;;;-1.40;99.90;;;;;;5111850;28;20174;-76
2022/01/20 07:59:20;;;;;;;13.30;8.77;;;-1.20;99.90;;;;;;5129909;28;20190;-76
2022/01/20 08:01:49;;;;;;;16.35;9.63;;;-1.10;99.90;;;;;;5111453;28;20190;-76
2022/01/20 08:04:15;;;;;;;16.33;8.88;;;-1.00;99.90;;;;;;5130021;28;20159;-76
2022/01/20 08:06:41;;;;;;;17.10;9.27;;;-1.00;99.90;;;;;;5129971;28;20165;-76
2022/01/20 08:09:09;;;;;;;15.48;9.18;;;-0.90;99.90;;;;;;5129811;28;20167;-77
2022/01/20 08:11:35;;;;;;;14.40;9.68;;;-0.80;99.90;;;;;;5098688;28;20203;-76
2022/01/20 08:14:03;;;;;;;18.52;9.43;;;-0.60;99.90;;;;;;5108097;28;20190;-74
2022/01/20 08:16:29;;;;;;;17.33;9.15;;;-0.30;99.90;;;;;;5092515;28;20181;-77
2022/01/20 08:18:55;;;;;;;19.85;10.43;;;-0.10;99.90;;;;;;5104582;28;20159;-77
2022/01/20 08:21:21;;;;;;;17.58;9.40;;;0.10;99.90;;;;;;5092121;28;20230;-76
2022/01/20 08:23:50;;;;;;;23.00;12.95;;;0.40;99.90;;;;;;5113057;28;20209;-75
2022/01/20 08:26:15;;;;;;;19.95;11.85;;;0.50;99.90;;;;;;5088524;28;20325;-77
2022/01/20 08:28:42;;;;;;;14.35;8.18;;;0.50;99.90;;;;;;5109604;28;20199;-76
2022/01/20 08:31:09;;;;;;;18.08;10.02;;;0.50;99.90;;;;;;5121939;28;21007;-77
2022/01/20 08:33:34;;;;;;;18.50;8.55;;;0.60;99.90;;;;;;5089674;28;20208;-74
2022/01/20 08:36:01;;;;;;;15.27;7.68;;;0.50;99.90;;;;;;5100490;28;20194;-75
2022/01/20 08:38:26;;;;;;;12.55;6.97;;;0.50;99.90;;;;;;5095716;28;20622;-74
2022/01/20 08:40:52;;;;;;;20.52;9.07;;;0.70;99.90;;;;;;5112839;28;20199;-75
2022/01/20 08:43:18;;;;;;;18.98;10.43;;;0.80;99.90;;;;;;5090797;28;20202;-75
2022/01/20 08:45:46;;;;;;;13.98;8.63;;;0.80;99.90;;;;;;5091216;28;20213;-76
2022/01/20 08:48:13;;;;;;;9.95;6.45;;;0.80;99.90;;;;;;5083460;28;20176;-77
2022/01/20 08:50:41;;;;;;;11.85;6.60;;;0.90;99.90;;;;;;5074909;28;20310;-74
2022/01/20 08:53:07;;;;;;;17.30;6.97;;;1.10;99.90;;;;;;5110228;28;20269;-76
2022/01/20 08:55:34;;;;;;;9.85;5.72;;;1.30;99.90;;;;;;5125530;28;20632;-75
2022/01/20 08:58:00;;;;;;;13.70;6.80;;;1.40;99.90;;;;;;5091956;28;20195;-75
2022/01/20 09:00:31;;;;;;;14.38;5.47;;;1.50;99.90;;;;;;5103346;28;20229;-74
2022/01/20 09:02:58;;;;;;;13.48;6.63;;;1.60;99.90;;;;;;5127822;28;20201;-74
2022/01/20 09:05:25;;;;;;;15.13;7.50;;;1.80;99.90;;;;;;5109858;28;20194;-74
2022/01/20 09:07:52;;;;;;;16.67;6.72;;;2.00;99.90;;;;;;5112350;28;20205;-77
2022/01/20 09:10:20;;;;;;;12.75;7.22;;;2.10;99.90;;;;;;5104741;28;20183;-76
2022/01/20 09:15:29;;;;;;;16.45;7.57;;;2.60;99.90;;;;;;5131452;27;20202;-76
2022/01/20 09:18:04;;;;;;;12.02;6.78;;;2.90;99.90;;;;;;5112429;27;20200;-77
2022/01/20 09:20:32;;;;;;;14.10;6.97;;;3.30;99.90;;;;;;5130940;27;20185;-77
2022/01/20 09:22:59;;;;;;;12.75;7.15;;;3.40;99.90;;;;;;5130313;28;20190;-76
2022/01/20 09:25:25;;;;;;;12.93;7.68;;;3.60;99.90;;;;;;5112168;27;20230;-76
2022/01/20 09:27:52;;;;;;;12.80;7.68;;;4.20;99.90;;;;;;5126676;27;20522;-76
2022/01/20 09:30:19;;;;;;;13.32;7.22;;;4.70;99.90;;;;;;5111520;28;20214;-76
2022/01/20 09:32:58;;;;;;;19.85;7.10;;;4.50;99.90;;;;;;5110234;28;20198;-76
2022/01/20 09:35:29;;;;;;;14.25;8.45;;;4.50;99.90;;;;;;5130593;27;20201;-75
2022/01/20 09:37:55;;;;;;;17.30;7.22;;;4.40;99.90;;;;;;5106743;28;20210;-75
2022/01/20 09:40:21;;;;;;;18.38;7.53;;;4.30;99.90;;;;;;5128534;27;20195;-75
2022/01/20 09:42:52;;;;;;;11.68;6.72;;;4.10;99.90;;;;;;5133075;27;20198;-75
2022/01/20 09:45:18;;;;;;;19.85;6.68;;;4.20;99.90;;;;;;5129778;28;20337;-75
2022/01/20 09:47:44;;;;;;;19.25;8.52;;;4.20;99.90;;;;;;5128626;28;20181;-76
2022/01/20 09:50:13;;;;;;;13.80;7.95;;;4.40;99.90;;;;;;5127910;27;20198;-75
2022/01/20 09:52:39;;;;;;;17.73;7.03;;;4.40;99.90;;;;;;5107794;28;20199;-75
2022/01/20 09:55:05;;;;;;;16.58;7.85;;;4.70;99.90;;;;;;5114253;27;20233;-75
2022/01/20 09:57:32;;;;;;;14.77;8.60;;;5.80;99.90;;;;;;5132460;27;20171;-75
2022/01/20 09:59:57;;;;;;;18.90;8.52;;;7.80;99.90;;;;;;5113380;28;20430;-77
2022/01/20 10:02:23;;;;;;;12.13;6.97;;;9.80;99.90;;;;;;5112928;28;20174;-76
2022/01/20 10:04:49;;;;;;;14.63;7.13;;;9.20;99.90;;;;;;5131701;28;20228;-76
2022/01/20 10:07:18;;;;;;;12.00;6.70;;;8.50;99.90;;;;;;5131589;28;20174;-77
2022/01/20 10:09:49;;;;;;;15.23;6.82;;;7.30;99.90;;;;;;5113259;28;20193;-75
2022/01/20 10:12:21;;;;;;;12.18;6.45;;;5.80;99.90;;;;;;5128136;28;20555;-76
2022/01/20 10:14:53;;;;;;;18.58;8.50;;;5.20;99.90;;;;;;5125455;28;20198;-75
2022/01/20 10:17:21;;;;;;;13.32;7.20;;;5.10;99.90;;;;;;5128931;28;20158;-76
2022/01/20 10:19:52;;;;;;;13.00;7.57;;;5.20;99.90;;;;;;5113541;28;20167;-75
2022/01/20 10:22:23;;;;;;;16.27;6.80;;;5.50;99.90;;;;;;5132327;28;20167;-75
2022/01/20 10:25:19;;;;;;;18.23;9.13;;;6.40;99.90;;;;;;5112952;28;20198;-76
2022/01/20 10:27:48;;;;;;;15.60;7.03;;;7.30;99.90;;;;;;5096468;28;20182;-76
2022/01/20 10:30:17;;;;;;;16.50;7.13;;;7.80;99.90;;;;;;5131818;28;20213;-77
2022/01/20 10:32:44;;;;;;;21.92;7.28;;;7.90;99.90;;;;;;5131274;28;20151;-77
2022/01/20 10:35:12;;;;;;;17.75;7.18;;;9.20;99.90;;;;;;5113334;28;20210;-78
2022/01/20 10:37:40;;;;;;;19.95;9.25;;;9.70;99.90;;;;;;5130571;28;20151;-78
2022/01/20 10:40:12;;;;;;;17.67;7.05;;;10.20;99.90;;;;;;5131459;28;20579;-77
2022/01/20 10:42:46;;;;;;;20.30;7.18;;;9.80;99.90;;;;;;5113331;28;20163;-77
2022/01/20 10:45:22;;;;;;;15.93;7.38;;;8.60;99.90;;;;;;5128590;28;20183;-77
2022/01/20 10:47:57;;;;;;;18.15;7.53;;;8.10;99.90;;;;;;5102581;28;20209;-77
2022/01/20 10:50:27;;;;;;;16.77;7.13;;;7.70;99.90;;;;;;5109379;28;20163;-76
2022/01/20 10:52:54;;;;;;;23.17;8.20;;;7.70;99.90;;;;;;5100187;28;20181;-77
2022/01/20 10:55:34;;;;;;;16.35;8.50;;;9.30;99.90;;;;;;5112881;28;20561;-78
2022/01/20 10:58:16;;;;;;;14.45;7.95;;;10.80;99.90;;;;;;5131275;28;20190;-77
2022/01/20 11:00:47;;;;;;;26.80;9.27;;;11.80;99.90;;;;;;5105562;28;20231;-77
2022/01/20 11:03:14;;;;;;;29.20;8.23;;;12.30;99.90;;;;;;5110558;28;20215;-77
2022/01/20 11:05:44;;;;;;;18.23;7.82;;;12.60;99.90;;;;;;5092407;28;20171;-77
2022/01/20 11:08:10;;;;;;;14.38;7.55;;;13.30;99.90;;;;;;5111687;28;20209;-78
2022/01/20 11:10:41;;;;;;;16.15;8.15;;;14.10;99.90;;;;;;5130828;28;20159;-78
2022/01/20 11:13:09;;;;;;;20.02;8.23;;;14.70;99.90;;;;;;5130826;28;20166;-76
2022/01/20 11:15:35;;;;;;;22.30;8.30;;;13.40;99.90;;;;;;5128534;28;20183;-76
2022/01/20 11:18:01;;;;;;;29.10;9.68;;;11.80;99.90;;;;;;5109814;28;20320;-77
2022/01/20 11:20:40;;;;;;;22.23;8.88;;;11.00;99.90;;;;;;5099160;28;20205;-79
2022/01/20 11:23:09;;;;;;;12.63;6.70;;;10.50;99.90;;;;;;5115647;28;20186;-79
2022/01/20 11:25:37;;;;;;;17.98;7.65;;;9.90;99.90;;;;;;5108283;28;20270;-79
2022/01/20 11:28:07;;;;;;;25.27;7.20;;;9.80;99.90;;;;;;5100769;28;20209;-77
2022/01/20 11:30:39;;;;;;;11.57;7.05;;;9.60;99.90;;;;;;5109973;28;20148;-78
2022/01/20 11:33:15;;;;;;;17.20;7.07;;;9.60;99.90;;;;;;5115421;28;20171;-78
2022/01/20 11:35:56;;;;;;;22.00;7.95;;;9.70;99.90;;;;;;5130510;28;20308;-78
2022/01/20 11:38:43;;;;;;;24.85;8.30;;;9.50;99.90;;;;;;5130236;28;20244;-78
2022/01/20 11:41:10;;;;;;;16.35;8.60;;;8.90;99.90;;;;;;5111534;28;20178;-78
2022/01/20 11:43:43;;;;;;;16.80;8.43;;;8.20;99.90;;;;;;5127215;28;20175;-78
2022/01/20 11:46:15;;;;;;;26.00;10.50;;;7.80;99.90;;;;;;5123424;28;20186;-78
2022/01/20 11:49:01;;;;;;;22.50;9.88;;;7.10;99.90;;;;;;5110662;28;20202;-77
2022/01/20 11:51:48;;;;;;;27.52;10.73;;;6.90;99.90;;;;;;5111091;28;20178;-77
2022/01/20 11:54:29;;;;;;;18.65;8.88;;;7.10;99.90;;;;;;5111150;28;20221;-77
2022/01/20 11:57:29;;;;;;;18.77;9.85;;;7.20;99.90;;;;;;5110805;28;20174;-78
2022/01/20 12:00:00;;;;;;;30.23;10.10;;;7.20;99.90;;;;;;5128647;28;20225;-74
2022/01/20 12:02:43;;;;;;;17.25;9.48;;;7.30;99.90;;;;;;5093869;28;20220;-74
2022/01/20 12:05:30;;;;;;;20.60;8.75;;;7.40;99.90;;;;;;5111226;28;20174;-76
2022/01/20 12:08:12;;;;;;;18.15;8.43;;;7.40;99.90;;;;;;5128954;28;20238;-74
2022/01/20 12:10:40;;;;;;;23.25;11.13;;;7.50;99.90;;;;;;5113961;28;20199;-74
2022/01/20 12:13:17;;;;;;;21.73;10.45;;;7.50;99.90;;;;;;5129314;28;20175;-73
2022/01/20 12:15:49;;;;;;;18.13;9.05;;;7.50;99.90;;;;;;5110849;28;20262;-74
2022/01/20 12:18:15;;;;;;;22.23;9.52;;;7.60;99.90;;;;;;5128678;28;20157;-74
2022/01/20 12:20:41;;;;;;;15.55;8.80;;;7.40;99.90;;;;;;5122474;28;20208;-74
2022/01/20 12:23:07;;;;;;;19.83;9.75;;;7.40;99.90;;;;;;5127408;28;20163;-73
2022/01/20 12:25:36;;;;;;;23.85;9.90;;;7.20;99.90;;;;;;5122007;28;20206;-73
2022/01/20 12:28:14;;;;;;;21.77;9.98;;;7.10;99.90;;;;;;5127984;28;20158;-72
2022/01/20 12:30:48;;;;;;;19.75;10.43;;;6.90;99.90;;;;;;5108908;28;20198;-72
2022/01/20 12:33:18;;;;;;;22.75;12.20;;;6.80;99.90;;;;;;5128220;28;20167;-74
2022/01/20 12:35:48;;;;;;;29.85;10.57;;;6.60;99.90;;;;;;5109347;28;20207;-72
2022/01/20 12:38:26;;;;;;;19.80;9.98;;;6.60;99.90;;;;;;5128307;28;20159;-72
2022/01/20 12:41:22;;;;;;;20.95;11.07;;;6.60;99.90;;;;;;5109055;28;20178;-72
2022/01/20 12:44:03;;;;;;;24.58;9.73;;;6.70;99.90;;;;;;5109839;28;20171;-72
2022/01/20 12:46:38;;;;;;;22.33;11.18;;;6.60;99.90;;;;;;5127287;28;20277;-74
2022/01/20 12:49:16;;;;;;;14.95;8.68;;;6.50;99.90;;;;;;5109902;28;20178;-72
2022/01/20 12:51:53;;;;;;;17.35;9.07;;;6.50;99.90;;;;;;5109326;28;20221;-74
2022/01/20 12:54:33;;;;;;;13.40;9.18;;;6.30;99.90;;;;;;5112994;28;20188;-73
2022/01/20 12:57:07;;;;;;;24.17;9.90;;;6.10;99.90;;;;;;5128832;28;20231;-74
2022/01/20 12:59:41;;;;;;;19.30;10.27;;;6.10;99.90;;;;;;5110195;28;20221;-74
2022/01/20 13:02:33;;;;;;;17.00;9.05;;;6.00;99.90;;;;;;5111534;28;20226;-71
2022/01/20 13:05:02;;;;;;;18.20;9.43;;;5.80;99.90;;;;;;5110501;28;20182;-73
2022/01/20 13:07:30;;;;;;;15.57;9.43;;;6.00;99.90;;;;;;5128583;28;20194;-72
2022/01/20 13:10:07;;;;;;;18.98;9.10;;;6.10;99.90;;;;;;5128389;28;20163;-72
2022/01/20 13:12:38;;;;;;;20.70;9.15;;;6.00;99.90;;;;;;5127502;28;20175;-72
2022/01/20 13:15:06;;;;;;;18.67;10.20;;;6.20;99.90;;;;;;5128994;28;20253;-73
2022/01/20 13:17:35;;;;;;;29.52;13.50;;;6.10;99.90;;;;;;5109508;28;20174;-74
2022/01/20 13:20:16;;;;;;;24.10;12.65;;;6.10;99.90;;;;;;5128629;28;20235;-74
2022/01/20 13:22:56;;;;;;;20.30;10.02;;;6.10;99.90;;;;;;5110577;28;20159;-73
2022/01/20 13:25:27;;;;;;;21.83;11.52;;;6.00;99.90;;;;;;5109241;28;20206;-74
2022/01/20 13:27:57;;;;;;;17.10;8.73;;;5.90;99.90;;;;;;5108370;28;20261;-74
2022/01/20 13:30:41;;;;;;;20.10;10.45;;;5.90;99.90;;;;;;5089880;28;20534;-73
2022/01/20 13:33:23;;;;;;;35.13;10.98;;;5.90;99.90;;;;;;5113714;28;20250;-72
2022/01/20 13:35:55;;;;;;;14.95;10.23;;;5.80;99.90;;;;;;5128840;28;20616;-74
2022/01/20 13:38:29;;;;;;;18.08;9.90;;;5.70;99.90;;;;;;5110441;28;20174;-74
2022/01/20 13:41:11;;;;;;;16.63;8.75;;;5.80;99.90;;;;;;5128484;28;20182;-73
2022/01/20 13:46:39;;;;;;;21.33;9.32;;;6.10;99.90;;;;;;5132235;28;20163;-72
2022/01/20 13:49:09;;;;;;;20.65;9.55;;;6.10;99.90;;;;;;5132318;28;20184;-75
2022/01/20 13:51:36;;;;;;;5.15;3.17;;;6.00;99.90;;;;;;5132257;28;20197;-74
2022/01/20 13:54:02;;;;;;;14.00;7.70;;;6.20;99.90;;;;;;5132130;28;20194;-74
2022/01/20 13:56:30;;;;;;;20.40;7.95;;;6.30;99.90;;;;;;5132154;28;20170;-73
2022/01/20 13:59:07;;;;;;;13.63;6.95;;;6.40;99.90;;;;;;5131980;28;20162;-73
2022/01/20 14:01:34;;;;;;;13.82;6.53;;;6.30;99.90;;;;;;5131938;28;20251;-73
2022/01/20 14:04:00;;;;;;;12.80;6.28;;;6.40;99.90;;;;;;5113801;28;20167;-75
2022/01/20 14:06:27;;;;;;;12.75;6.45;;;6.50;99.90;;;;;;5132028;28;20151;-76